sensor_id;sensor_type;location;lat;lon;timestamp;pressure;altitude;pressure_sealevel;temperature;humidity
48824;BME280;34640;53.590;10.054;2022-10-23T00:00:05;101135.78;;;12.91;100.00
48824;BME280;34640;53.590;10.054;2022-10-23T00:02:39;101126.06;;;12.89;100.00
48824;BME280;34640;53.590;10.054;2022-10-23T00:05:13;101123.09;;;12.82;100.00
48824;BME280;34640;53.590;10.054;2022-10-23T00:07:50;101126.06;;;12.74;100.00
48824;BME280;34640;53.590;10.054;2022-10-23T00:10:26;101124.84;;;12.67;100.00
48824;BME280;34640;53.590;10.054;2022-10-23T00:13:01;101125.56;;;12.65;100.00
48824;BME280;34640;53.590;10.054;2022-10-23T00:15:36;101128.91;;;12.62;100.00
48824;BME280;34640;53.590;10.054;2022-10-23T00:18:09;101134.66;;;12.57;100.00
48824;BME280;34640;53.590;10.054;2022-10-23T00:20:43;101136.84;;;12.49;100.00
48824;BME280;34640;53.590;10.054;2022-10-23T00:23:17;101135.69;;;12.44;100.00
48824;BME280;34640;53.590;10.054;2022-10-23T00:25:51;101136.41;;;12.41;100.00
48824;BME280;34640;53.590;10.054;2022-10-23T00:28:26;101132.91;;;12.41;100.00
48824;BME280;34640;53.590;10.054;2022-10-23T00:31:00;101139.75;;;12.39;100.00
48824;BME280;34640;53.590;10.054;2022-10-23T00:33:35;101135.50;;;12.41;100.00
48824;BME280;34640;53.590;10.054;2022-10-23T00:36:10;101145.16;;;12.42;100.00
48824;BME280;34640;53.590;10.054;2022-10-23T00:38:45;101147.94;;;12.45;100.00
48824;BME280;34640;53.590;10.054;2022-10-23T00:41:21;101139.91;;;12.42;100.00
48824;BME280;34640;53.590;10.054;2022-10-23T00:44:04;101138.63;;;12.35;100.00
48824;BME280;34640;53.590;10.054;2022-10-23T00:46:38;101141.00;;;12.31;100.00
48824;BME280;34640;53.590;10.054;2022-10-23T00:49:13;101138.28;;;12.29;100.00
48824;BME280;34640;53.590;10.054;2022-10-23T00:51:50;101130.09;;;12.23;100.00
48824;BME280;34640;53.590;10.054;2022-10-23T00:54:26;101133.19;;;12.16;100.00
48824;BME280;34640;53.590;10.054;2022-10-23T00:57:05;101134.59;;;12.11;100.00
48824;BME280;34640;53.590;10.054;2022-10-23T00:59:40;101138.72;;;12.07;100.00
48824;BME280;34640;53.590;10.054;2022-10-23T01:02:14;101141.97;;;12.03;100.00
48824;BME280;34640;53.590;10.054;2022-10-23T01:04:48;101139.19;;;12.00;100.00
48824;BME280;34640;53.590;10.054;2022-10-23T01:07:27;101142.50;;;11.98;100.00
48824;BME280;34640;53.590;10.054;2022-10-23T01:10:05;101133.69;;;11.96;100.00
48824;BME280;34640;53.590;10.054;2022-10-23T01:12:45;101142.50;;;11.98;100.00
48824;BME280;34640;53.590;10.054;2022-10-23T01:15:28;101134.88;;;12.01;100.00
48824;BME280;34640;53.590;10.054;2022-10-23T01:18:07;101141.34;;;12.07;100.00
48824;BME280;34640;53.590;10.054;2022-10-23T01:20:46;101129.19;;;12.08;100.00
48824;BME280;34640;53.590;10.054;2022-10-23T01:23:41;101125.41;;;12.03;100.00
48824;BME280;34640;53.590;10.054;2022-10-23T01:26:28;101131.19;;;11.97;100.00
48824;BME280;34640;53.590;10.054;2022-10-23T01:29:10;101129.19;;;11.93;100.00
48824;BME280;34640;53.590;10.054;2022-10-23T01:31:50;101124.56;;;11.89;100.00
48824;BME280;34640;53.590;10.054;2022-10-23T01:34:29;101122.94;;;11.91;100.00
48824;BME280;34640;53.590;10.054;2022-10-23T01:37:08;101124.97;;;11.95;100.00
48824;BME280;34640;53.590;10.054;2022-10-23T01:39:48;101126.84;;;11.98;100.00
48824;BME280;34640;53.590;10.054;2022-10-23T01:42:27;101128.66;;;11.99;100.00
48824;BME280;34640;53.590;10.054;2022-10-23T01:45:07;101130.47;;;12.00;100.00
48824;BME280;34640;53.590;10.054;2022-10-23T01:47:43;101132.16;;;11.99;100.00
48824;BME280;34640;53.590;10.054;2022-10-23T01:50:19;101126.13;;;12.00;100.00
48824;BME280;34640;53.590;10.054;2022-10-23T01:52:54;101126.13;;;12.00;100.00
48824;BME280;34640;53.590;10.054;2022-10-23T01:55:28;101123.63;;;12.02;100.00
48824;BME280;34640;53.590;10.054;2022-10-23T01:58:04;101123.69;;;12.03;100.00
48824;BME280;34640;53.590;10.054;2022-10-23T02:00:43;101119.38;;;12.04;100.00
48824;BME280;34640;53.590;10.054;2022-10-23T02:03:18;101119.56;;;12.07;100.00
48824;BME280;34640;53.590;10.054;2022-10-23T02:05:52;101110.75;;;12.05;100.00
48824;BME280;34640;53.590;10.054;2022-10-23T02:08:26;101111.47;;;12.02;100.00
48824;BME280;34640;53.590;10.054;2022-10-23T02:11:06;101106.88;;;11.98;100.00
48824;BME280;34640;53.590;10.054;2022-10-23T02:13:44;101113.72;;;11.96;100.00
48824;BME280;34640;53.590;10.054;2022-10-23T02:16:24;101117.13;;;11.95;100.00
48824;BME280;34640;53.590;10.054;2022-10-23T02:19:10;101110.63;;;11.88;100.00
48824;BME280;34640;53.590;10.054;2022-10-23T02:21:50;101111.34;;;11.86;100.00
48824;BME280;34640;53.590;10.054;2022-10-23T02:24:30;101105.06;;;11.82;100.00
48824;BME280;34640;53.590;10.054;2022-10-23T02:27:10;101105.69;;;11.78;100.00
48824;BME280;34640;53.590;10.054;2022-10-23T02:29:48;101108.06;;;11.75;100.00
48824;BME280;34640;53.590;10.054;2022-10-23T02:32:26;101113.19;;;11.74;100.00
48824;BME280;34640;53.590;10.054;2022-10-23T02:35:00;101104.25;;;11.70;100.00
48824;BME280;34640;53.590;10.054;2022-10-23T02:37:34;101105.97;;;11.70;100.00
48824;BME280;34640;53.590;10.054;2022-10-23T02:40:09;101104.88;;;11.66;100.00
48824;BME280;34640;53.590;10.054;2022-10-23T02:42:48;101110.56;;;11.59;100.00
48824;BME280;34640;53.590;10.054;2022-10-23T02:45:28;101109.38;;;11.54;100.00
48824;BME280;34640;53.590;10.054;2022-10-23T02:48:11;101109.56;;;11.57;100.00
48824;BME280;34640;53.590;10.054;2022-10-23T02:50:51;101111.91;;;11.52;100.00
48824;BME280;34640;53.590;10.054;2022-10-23T02:53:32;101104.56;;;11.47;100.00
48824;BME280;34640;53.590;10.054;2022-10-23T02:56:12;101111.31;;;11.43;100.00
48824;BME280;34640;53.590;10.054;2022-10-23T02:58:53;101102.59;;;11.43;100.00
48824;BME280;34640;53.590;10.054;2022-10-23T03:01:37;101104.19;;;11.41;100.00
48824;BME280;34640;53.590;10.054;2022-10-23T03:04:16;101100.50;;;11.37;100.00
48824;BME280;34640;53.590;10.054;2022-10-23T03:06:51;101103.84;;;11.35;100.00
48824;BME280;34640;53.590;10.054;2022-10-23T03:09:25;101105.53;;;11.34;100.00
48824;BME280;34640;53.590;10.054;2022-10-23T03:11:59;101109.84;;;11.33;100.00
48824;BME280;34640;53.590;10.054;2022-10-23T03:14:33;101103.56;;;11.30;100.00
48824;BME280;34640;53.590;10.054;2022-10-23T03:17:06;101099.16;;;11.29;100.00
48824;BME280;34640;53.590;10.054;2022-10-23T03:19:41;101097.34;;;11.28;100.00
48824;BME280;34640;53.590;10.054;2022-10-23T03:22:15;101093.63;;;11.24;100.00
48824;BME280;34640;53.590;10.054;2022-10-23T03:24:49;101097.03;;;11.23;100.00
48824;BME280;34640;53.590;10.054;2022-10-23T03:27:22;101103.88;;;11.21;100.00
48824;BME280;34640;53.590;10.054;2022-10-23T03:29:56;101103.88;;;11.21;100.00
48824;BME280;34640;53.590;10.054;2022-10-23T03:32:29;101104.66;;;11.20;100.00
48824;BME280;34640;53.590;10.054;2022-10-23T03:35:05;101108.88;;;11.18;100.00
48824;BME280;34640;53.590;10.054;2022-10-23T03:37:39;101103.50;;;11.15;100.00
48824;BME280;34640;53.590;10.054;2022-10-23T03:40:13;101098.19;;;11.14;100.00
48824;BME280;34640;53.590;10.054;2022-10-23T03:42:47;101091.16;;;11.13;100.00
48824;BME280;34640;53.590;10.054;2022-10-23T03:45:20;101094.50;;;11.10;100.00
48824;BME280;34640;53.590;10.054;2022-10-23T03:47:54;101091.78;;;11.09;100.00
48824;BME280;34640;53.590;10.054;2022-10-23T03:50:29;101093.41;;;11.07;100.00
48824;BME280;34640;53.590;10.054;2022-10-23T03:53:02;101091.47;;;11.04;100.00
48824;BME280;34640;53.590;10.054;2022-10-23T03:55:36;101103.50;;;11.02;100.00
48824;BME280;34640;53.590;10.054;2022-10-23T03:58:10;101098.00;;;10.97;100.00
48824;BME280;34640;53.590;10.054;2022-10-23T04:00:43;101095.41;;;10.97;100.00
48824;BME280;34640;53.590;10.054;2022-10-23T04:03:17;101092.00;;;10.98;100.00
48824;BME280;34640;53.590;10.054;2022-10-23T04:05:52;101089.19;;;10.95;100.00
48824;BME280;34640;53.590;10.054;2022-10-23T04:08:26;101091.63;;;10.92;100.00
48824;BME280;34640;53.590;10.054;2022-10-23T04:10:59;101094.94;;;10.90;100.00
48824;BME280;34640;53.590;10.054;2022-10-23T04:13:33;101100.84;;;10.87;100.00
48824;BME280;34640;53.590;10.054;2022-10-23T04:16:07;101091.16;;;10.85;100.00
48824;BME280;34640;53.590;10.054;2022-10-23T04:18:40;101089.22;;;10.82;100.00
48824;BME280;34640;53.590;10.054;2022-10-23T04:21:16;101096.03;;;10.80;100.00
48824;BME280;34640;53.590;10.054;2022-10-23T04:23:49;101095.13;;;10.80;100.00
48824;BME280;34640;53.590;10.054;2022-10-23T04:26:23;101092.34;;;10.77;100.00
48824;BME280;34640;53.590;10.054;2022-10-23T04:28:56;101084.34;;;10.74;100.00
48824;BME280;34640;53.590;10.054;2022-10-23T04:31:30;101089.25;;;10.69;100.00
48824;BME280;34640;53.590;10.054;2022-10-23T04:34:04;101083.75;;;10.64;100.00
48824;BME280;34640;53.590;10.054;2022-10-23T04:36:44;101078.31;;;10.61;100.00
48824;BME280;34640;53.590;10.054;2022-10-23T04:39:17;101074.00;;;10.62;100.00
48824;BME280;34640;53.590;10.054;2022-10-23T04:41:51;101070.31;;;10.58;100.00
48824;BME280;34640;53.590;10.054;2022-10-23T04:44:25;101065.91;;;10.57;100.00
48824;BME280;34640;53.590;10.054;2022-10-23T04:46:58;101057.91;;;10.54;100.00
48824;BME280;34640;53.590;10.054;2022-10-23T04:49:32;101051.69;;;10.52;100.00
48824;BME280;34640;53.590;10.054;2022-10-23T04:52:07;101056.91;;;10.52;100.00
48824;BME280;34640;53.590;10.054;2022-10-23T04:54:41;101061.03;;;10.49;100.00
48824;BME280;34640;53.590;10.054;2022-10-23T04:57:14;101060.94;;;10.47;100.00
48824;BME280;34640;53.590;10.054;2022-10-23T04:59:48;101059.13;;;10.46;100.00
48824;BME280;34640;53.590;10.054;2022-10-23T05:02:21;101053.72;;;10.43;100.00
48824;BME280;34640;53.590;10.054;2022-10-23T05:04:55;101061.44;;;10.42;100.00
48824;BME280;34640;53.590;10.054;2022-10-23T05:07:30;101062.09;;;10.39;100.00
48824;BME280;34640;53.590;10.054;2022-10-23T05:10:05;101063.72;;;10.37;100.00
48824;BME280;34640;53.590;10.054;2022-10-23T05:12:39;101058.50;;;10.37;100.00
48824;BME280;34640;53.590;10.054;2022-10-23T05:15:12;101061.81;;;10.34;100.00
48824;BME280;34640;53.590;10.054;2022-10-23T05:17:49;101061.00;;;10.35;100.00
48824;BME280;34640;53.590;10.054;2022-10-23T05:20:27;101061.53;;;10.30;100.00
48824;BME280;34640;53.590;10.054;2022-10-23T05:23:05;101053.72;;;10.30;100.00
48824;BME280;34640;53.590;10.054;2022-10-23T05:25:41;101066.81;;;10.31;100.00
48824;BME280;34640;53.590;10.054;2022-10-23T05:28:15;101052.00;;;10.30;100.00
48824;BME280;34640;53.590;10.054;2022-10-23T05:30:49;101041.50;;;10.29;100.00
48824;BME280;34640;53.590;10.054;2022-10-23T05:33:22;101053.72;;;10.30;100.00
48824;BME280;34640;53.590;10.054;2022-10-23T05:35:56;101056.13;;;10.27;100.00
48824;BME280;34640;53.590;10.054;2022-10-23T05:38:33;101052.53;;;10.25;100.00
48824;BME280;34640;53.590;10.054;2022-10-23T05:41:08;101055.81;;;10.22;100.00
48824;BME280;34640;53.590;10.054;2022-10-23T05:43:41;101055.72;;;10.21;100.00
48824;BME280;34640;53.590;10.054;2022-10-23T05:46:15;101060.78;;;10.19;100.00
48824;BME280;34640;53.590;10.054;2022-10-23T05:48:49;101052.88;;;10.18;100.00
48824;BME280;34640;53.590;10.054;2022-10-23T05:51:23;101045.06;;;10.18;100.00
48824;BME280;34640;53.590;10.054;2022-10-23T05:53:58;101050.16;;;10.16;100.00
48824;BME280;34640;53.590;10.054;2022-10-23T05:56:32;101055.28;;;10.15;100.00
48824;BME280;34640;53.590;10.054;2022-10-23T05:59:06;101056.88;;;10.13;100.00
48824;BME280;34640;53.590;10.054;2022-10-23T06:01:40;101071.59;;;10.12;100.00
48824;BME280;34640;53.590;10.054;2022-10-23T06:04:14;101068.88;;;10.10;100.00
48824;BME280;34640;53.590;10.054;2022-10-23T06:06:47;101078.41;;;10.10;100.00
48824;BME280;34640;53.590;10.054;2022-10-23T06:09:22;101072.19;;;10.08;100.00
48824;BME280;34640;53.590;10.054;2022-10-23T06:11:56;101064.47;;;10.09;100.00
48824;BME280;34640;53.590;10.054;2022-10-23T06:14:30;101066.19;;;10.09;100.00
48824;BME280;34640;53.590;10.054;2022-10-23T06:17:04;101062.88;;;10.11;100.00
48824;BME280;34640;53.590;10.054;2022-10-23T06:19:38;101068.28;;;10.15;100.00
48824;BME280;34640;53.590;10.054;2022-10-23T06:22:11;101071.88;;;10.17;100.00
48824;BME280;34640;53.590;10.054;2022-10-23T06:24:46;101080.81;;;10.20;100.00
48824;BME280;34640;53.590;10.054;2022-10-23T06:27:20;101083.56;;;10.22;100.00
48824;BME280;34640;53.590;10.054;2022-10-23T06:29:54;101078.66;;;10.26;100.00
48824;BME280;34640;53.590;10.054;2022-10-23T06:32:30;101076.25;;;10.29;100.00
48824;BME280;34640;53.590;10.054;2022-10-23T06:35:05;101074.94;;;10.36;100.00
48824;BME280;34640;53.590;10.054;2022-10-23T06:37:38;101069.03;;;10.38;100.00
48824;BME280;34640;53.590;10.054;2022-10-23T06:40:14;101055.63;;;10.46;100.00
48824;BME280;34640;53.590;10.054;2022-10-23T06:42:47;101062.72;;;10.48;100.00
48824;BME280;34640;53.590;10.054;2022-10-23T06:45:21;101067.22;;;10.51;100.00
48824;BME280;34640;53.590;10.054;2022-10-23T06:47:54;101068.03;;;10.50;100.00
48824;BME280;34640;53.590;10.054;2022-10-23T06:50:28;101067.03;;;10.48;100.00
48824;BME280;34640;53.590;10.054;2022-10-23T06:53:03;101064.53;;;10.49;100.00
48824;BME280;34640;53.590;10.054;2022-10-23T06:55:38;101069.31;;;10.56;100.00
48824;BME280;34640;53.590;10.054;2022-10-23T06:58:12;101063.31;;;10.57;100.00
48824;BME280;34640;53.590;10.054;2022-10-23T07:00:46;101054.88;;;10.61;100.00
48824;BME280;34640;53.590;10.054;2022-10-23T07:03:19;101049.09;;;10.65;100.00
48824;BME280;34640;53.590;10.054;2022-10-23T07:05:54;101054.31;;;10.65;100.00
48824;BME280;34640;53.590;10.054;2022-10-23T07:08:28;101055.09;;;10.64;100.00
48824;BME280;34640;53.590;10.054;2022-10-23T07:11:05;101058.00;;;10.69;100.00
48824;BME280;34640;53.590;10.054;2022-10-23T07:13:39;101056.94;;;10.80;100.00
48824;BME280;34640;53.590;10.054;2022-10-23T07:16:16;101051.78;;;11.36;100.00
48824;BME280;34640;53.590;10.054;2022-10-23T07:18:54;101051.31;;;11.71;100.00
48824;BME280;34640;53.590;10.054;2022-10-23T07:21:31;101048.47;;;11.68;100.00
48824;BME280;34640;53.590;10.054;2022-10-23T07:24:06;101063.59;;;11.59;100.00
48824;BME280;34640;53.590;10.054;2022-10-23T07:26:42;101065.03;;;11.54;100.00
48824;BME280;34640;53.590;10.054;2022-10-23T07:29:16;101066.44;;;11.49;100.00
48824;BME280;34640;53.590;10.054;2022-10-23T07:31:50;101068.16;;;11.48;100.00
48824;BME280;34640;53.590;10.054;2022-10-23T07:34:23;101070.44;;;11.57;100.00
48824;BME280;34640;53.590;10.054;2022-10-23T07:36:57;101078.00;;;11.52;100.00
48824;BME280;34640;53.590;10.054;2022-10-23T07:39:31;101075.91;;;11.61;100.00
48824;BME280;34640;53.590;10.054;2022-10-23T07:42:07;101078.44;;;11.60;100.00
48824;BME280;34640;53.590;10.054;2022-10-23T07:44:41;101077.91;;;11.51;100.00
48824;BME280;34640;53.590;10.054;2022-10-23T07:47:15;101081.84;;;11.59;100.00
48824;BME280;34640;53.590;10.054;2022-10-23T07:49:49;101072.78;;;11.67;100.00
48824;BME280;34640;53.590;10.054;2022-10-23T07:52:24;101067.97;;;11.88;100.00
48824;BME280;34640;53.590;10.054;2022-10-23T07:54:58;101073.84;;;11.99;100.00
48824;BME280;34640;53.590;10.054;2022-10-23T07:57:33;101078.78;;;12.09;100.00
48824;BME280;34640;53.590;10.054;2022-10-23T08:00:08;101083.66;;;12.17;100.00
48824;BME280;34640;53.590;10.054;2022-10-23T08:02:42;101080.56;;;12.24;100.00
48824;BME280;34640;53.590;10.054;2022-10-23T08:05:19;101068.41;;;12.25;100.00
48824;BME280;34640;53.590;10.054;2022-10-23T08:07:52;101073.63;;;12.40;100.00
48824;BME280;34640;53.590;10.054;2022-10-23T08:10:26;101066.22;;;12.47;100.00
48824;BME280;34640;53.590;10.054;2022-10-23T08:13:01;101060.97;;;12.62;100.00
48824;BME280;34640;53.590;10.054;2022-10-23T08:15:35;101051.34;;;12.77;100.00
48824;BME280;34640;53.590;10.054;2022-10-23T08:18:09;101052.81;;;13.03;100.00
48824;BME280;34640;53.590;10.054;2022-10-23T08:20:44;101058.66;;;13.30;100.00
48824;BME280;34640;53.590;10.054;2022-10-23T08:23:19;101057.56;;;13.43;100.00
48824;BME280;34640;53.590;10.054;2022-10-23T08:25:56;101053.22;;;13.60;100.00
48824;BME280;34640;53.590;10.054;2022-10-23T08:28:33;101055.44;;;13.68;100.00
48824;BME280;34640;53.590;10.054;2022-10-23T08:31:08;101055.09;;;13.79;100.00
48824;BME280;34640;53.590;10.054;2022-10-23T08:33:42;101057.66;;;13.95;100.00
48824;BME280;34640;53.590;10.054;2022-10-23T08:36:17;101051.78;;;14.17;100.00
48824;BME280;34640;53.590;10.054;2022-10-23T08:38:54;101048.66;;;14.42;100.00
48824;BME280;34640;53.590;10.054;2022-10-23T08:41:31;101055.63;;;14.41;100.00
48824;BME280;34640;53.590;10.054;2022-10-23T08:44:16;101053.94;;;14.59;100.00
48824;BME280;34640;53.590;10.054;2022-10-23T08:46:58;101051.59;;;14.65;100.00
48824;BME280;34640;53.590;10.054;2022-10-23T08:49:40;101049.66;;;14.61;100.00
48824;BME280;34640;53.590;10.054;2022-10-23T08:52:25;101050.22;;;14.74;100.00
48824;BME280;34640;53.590;10.054;2022-10-23T08:55:11;101049.38;;;14.75;100.00
48824;BME280;34640;53.590;10.054;2022-10-23T08:57:52;101047.13;;;15.00;100.00
48824;BME280;34640;53.590;10.054;2022-10-23T09:00:29;101040.31;;;15.23;100.00
48824;BME280;34640;53.590;10.054;2022-10-23T09:03:04;101039.81;;;15.32;100.00
48824;BME280;34640;53.590;10.054;2022-10-23T09:05:56;101036.16;;;15.28;100.00
48824;BME280;34640;53.590;10.054;2022-10-23T09:08:39;101036.84;;;15.05;100.00
48824;BME280;34640;53.590;10.054;2022-10-23T09:11:23;101029.13;;;14.90;100.00
48824;BME280;34640;53.590;10.054;2022-10-23T09:14:21;101031.00;;;14.92;100.00
48824;BME280;34640;53.590;10.054;2022-10-23T09:17:11;101034.91;;;15.01;100.00
48824;BME280;34640;53.590;10.054;2022-10-23T09:19:54;101024.50;;;15.21;100.00
48824;BME280;34640;53.590;10.054;2022-10-23T09:22:34;101016.63;;;15.41;100.00
48824;BME280;34640;53.590;10.054;2022-10-23T09:25:09;101022.00;;;15.44;100.00
48824;BME280;34640;53.590;10.054;2022-10-23T09:27:46;101022.59;;;15.38;100.00
48824;BME280;34640;53.590;10.054;2022-10-23T09:30:29;101014.19;;;15.45;100.00
48824;BME280;34640;53.590;10.054;2022-10-23T09:33:16;101023.28;;;15.53;100.00
48824;BME280;34640;53.590;10.054;2022-10-23T09:35:53;101022.13;;;15.47;100.00
48824;BME280;34640;53.590;10.054;2022-10-23T09:38:32;101018.53;;;15.45;100.00
48824;BME280;34640;53.590;10.054;2022-10-23T09:41:12;101015.91;;;15.45;100.00
48824;BME280;34640;53.590;10.054;2022-10-23T09:43:57;101029.81;;;15.62;100.00
48824;BME280;34640;53.590;10.054;2022-10-23T09:46:38;101024.81;;;15.68;100.00
48824;BME280;34640;53.590;10.054;2022-10-23T09:49:19;101022.59;;;15.77;100.00
48824;BME280;34640;53.590;10.054;2022-10-23T09:51:59;101026.03;;;15.76;100.00
48824;BME280;34640;53.590;10.054;2022-10-23T09:54:36;101026.63;;;15.69;100.00
48824;BME280;34640;53.590;10.054;2022-10-23T09:57:20;101028.41;;;15.70;100.00
48824;BME280;34640;53.590;10.054;2022-10-23T09:59:56;101027.84;;;15.77;100.00
48824;BME280;34640;53.590;10.054;2022-10-23T10:02:33;101028.47;;;15.71;100.00
48824;BME280;34640;53.590;10.054;2022-10-23T10:05:21;101021.00;;;15.61;100.00
48824;BME280;34640;53.590;10.054;2022-10-23T10:08:02;101025.78;;;15.50;100.00
48824;BME280;34640;53.590;10.054;2022-10-23T10:10:40;101024.13;;;15.52;100.00
48824;BME280;34640;53.590;10.054;2022-10-23T10:13:32;101018.94;;;15.73;100.00
48824;BME280;34640;53.590;10.054;2022-10-23T10:16:10;101011.13;;;15.75;100.00
48824;BME280;34640;53.590;10.054;2022-10-23T10:18:49;101014.06;;;15.82;100.00
48824;BME280;34640;53.590;10.054;2022-10-23T10:21:33;101001.59;;;15.98;100.00
48824;BME280;34640;53.590;10.054;2022-10-23T10:24:13;101004.34;;;16.01;100.00
48824;BME280;34640;53.590;10.054;2022-10-23T10:26:55;101002.41;;;16.17;100.00
48824;BME280;34640;53.590;10.054;2022-10-23T10:29:44;100994.47;;;16.16;100.00
48824;BME280;34640;53.590;10.054;2022-10-23T10:32:31;100993.31;;;16.09;100.00
48824;BME280;34640;53.590;10.054;2022-10-23T10:35:22;100990.81;;;16.12;100.00
48824;BME280;34640;53.590;10.054;2022-10-23T10:41:21;100983.94;;;16.16;100.00
48824;BME280;34640;53.590;10.054;2022-10-23T10:44:11;100969.59;;;16.29;100.00
48824;BME280;34640;53.590;10.054;2022-10-23T10:46:53;100959.72;;;16.45;100.00
48824;BME280;34640;53.590;10.054;2022-10-23T10:49:33;100956.38;;;16.27;100.00
48824;BME280;34640;53.590;10.054;2022-10-23T10:52:14;100956.63;;;16.33;100.00
48824;BME280;34640;53.590;10.054;2022-10-23T10:54:57;100947.72;;;16.30;100.00
48824;BME280;34640;53.590;10.054;2022-10-23T10:57:38;100951.47;;;16.59;100.00
48824;BME280;34640;53.590;10.054;2022-10-23T11:00:15;100959.78;;;16.69;100.00
48824;BME280;34640;53.590;10.054;2022-10-23T11:02:52;100968.00;;;16.77;100.00
48824;BME280;34640;53.590;10.054;2022-10-23T11:05:30;100948.75;;;16.78;100.00
48824;BME280;34640;53.590;10.054;2022-10-23T11:08:06;100946.34;;;16.62;100.00
48824;BME280;34640;53.590;10.054;2022-10-23T11:10:47;100943.06;;;16.67;100.00
48824;BME280;34640;53.590;10.054;2022-10-23T11:13:25;100937.38;;;16.79;100.00
48824;BME280;34640;53.590;10.054;2022-10-23T11:16:02;100924.97;;;16.75;100.00
48824;BME280;34640;53.590;10.054;2022-10-23T11:18:40;100931.34;;;16.59;100.00
48824;BME280;34640;53.590;10.054;2022-10-23T11:21:23;100919.88;;;16.57;100.00
48824;BME280;34640;53.590;10.054;2022-10-23T11:27:52;100904.72;;;16.72;100.00
48824;BME280;34640;53.590;10.054;2022-10-23T11:30:39;100908.44;;;16.79;100.00
48824;BME280;34640;53.590;10.054;2022-10-23T11:36:44;100898.44;;;16.93;100.00
48824;BME280;34640;53.590;10.054;2022-10-23T11:39:20;100898.22;;;17.12;100.00
48824;BME280;34640;53.590;10.054;2022-10-23T11:41:56;100894.94;;;17.18;100.00
48824;BME280;34640;53.590;10.054;2022-10-23T11:44:43;100890.84;;;17.26;100.00
48824;BME280;34640;53.590;10.054;2022-10-23T11:47:38;100886.81;;;17.35;100.00
48824;BME280;34640;53.590;10.054;2022-10-23T11:50:15;100882.19;;;17.30;100.00
48824;BME280;34640;53.590;10.054;2022-10-23T11:53:04;100872.50;;;17.29;100.00
48824;BME280;34640;53.590;10.054;2022-10-23T11:55:58;100872.84;;;17.38;100.00
48824;BME280;34640;53.590;10.054;2022-10-23T11:58:41;100876.16;;;17.58;100.00
48824;BME280;34640;53.590;10.054;2022-10-23T12:01:27;100854.84;;;17.52;100.00
48824;BME280;34640;53.590;10.054;2022-10-23T12:04:13;100850.13;;;17.41;100.00
48824;BME280;34640;53.590;10.054;2022-10-23T12:06:50;100837.72;;;17.37;100.00
48824;BME280;34640;53.590;10.054;2022-10-23T12:09:39;100848.25;;;17.37;100.00
48824;BME280;34640;53.590;10.054;2022-10-23T12:12:16;100843.88;;;17.38;100.00
48824;BME280;34640;53.590;10.054;2022-10-23T12:15:18;100844.78;;;17.38;100.00
48824;BME280;34640;53.590;10.054;2022-10-23T12:18:05;100835.22;;;17.42;100.00
48824;BME280;34640;53.590;10.054;2022-10-23T12:20:45;100838.00;;;17.47;100.00
48824;BME280;34640;53.590;10.054;2022-10-23T12:23:38;100829.63;;;17.58;100.00
48824;BME280;34640;53.590;10.054;2022-10-23T12:26:38;100832.59;;;17.67;100.00
48824;BME280;34640;53.590;10.054;2022-10-23T12:29:21;100820.34;;;17.69;100.00
48824;BME280;34640;53.590;10.054;2022-10-23T12:32:06;100815.63;;;17.59;100.00
48824;BME280;34640;53.590;10.054;2022-10-23T12:35:08;100804.63;;;17.46;100.00
48824;BME280;34640;53.590;10.054;2022-10-23T12:38:04;100795.94;;;17.48;100.00
48824;BME280;34640;53.590;10.054;2022-10-23T12:40:43;100793.16;;;17.44;100.00
48824;BME280;34640;53.590;10.054;2022-10-23T12:43:23;100777.25;;;17.40;100.00
48824;BME280;34640;53.590;10.054;2022-10-23T12:46:02;100781.22;;;17.28;100.00
48824;BME280;34640;53.590;10.054;2022-10-23T12:48:46;100780.41;;;17.30;100.00
48824;BME280;34640;53.590;10.054;2022-10-23T12:51:25;100768.09;;;17.29;100.00
48824;BME280;34640;53.590;10.054;2022-10-23T12:53:58;100766.47;;;17.33;100.00
48824;BME280;34640;53.590;10.054;2022-10-23T12:56:34;100754.41;;;17.39;100.00
48824;BME280;34640;53.590;10.054;2022-10-23T12:59:15;100746.47;;;17.38;100.00
48824;BME280;34640;53.590;10.054;2022-10-23T13:01:49;100738.94;;;17.50;100.00
48824;BME280;34640;53.590;10.054;2022-10-23T13:04:27;100729.50;;;17.57;100.00
48824;BME280;34640;53.590;10.054;2022-10-23T13:07:03;100728.22;;;17.71;100.00
48824;BME280;34640;53.590;10.054;2022-10-23T13:09:39;100729.34;;;17.79;100.00
48824;BME280;34640;53.590;10.054;2022-10-23T13:12:18;100731.13;;;17.80;100.00
48824;BME280;34640;53.590;10.054;2022-10-23T13:14:56;100716.78;;;17.70;100.00
48824;BME280;34640;53.590;10.054;2022-10-23T13:17:36;100708.91;;;17.72;100.00
48824;BME280;34640;53.590;10.054;2022-10-23T13:20:19;100704.41;;;17.68;100.00
48824;BME280;34640;53.590;10.054;2022-10-23T13:22:59;100705.19;;;17.65;100.00
48824;BME280;34640;53.590;10.054;2022-10-23T13:25:35;100691.09;;;17.63;100.00
48824;BME280;34640;53.590;10.054;2022-10-23T13:28:22;100683.94;;;17.59;100.00
48824;BME280;34640;53.590;10.054;2022-10-23T13:31:20;100682.00;;;17.54;100.00
48824;BME280;34640;53.590;10.054;2022-10-23T13:34:13;100681.81;;;17.48;100.00